首页
METAR-TAF:

METAR-TAF

机场 :

阿布辛拜勒神廟, 埃及

纬度: 22-22-33N, 经度: 31-36-42E, 海拔: 188米

当前天气观测

该预报发布于1小时和22分钟前的09:00 UTC
风速12节,风向
温度 34°C
湿度 25%
气压 1011 hPa
能见度10公里或以上
1500米以下无云,无积雨云

METAR: HEBL 300900Z 01012KT CAVOK 34/11 Q1011 NOSIG

时间: 12:22 (10:22 UTC)

预报

该预报发布于5小时和22分钟前的05:00 UTC
预报有效从30日的 06点(UTC)到 31日的 12点(UTC)
风速10节,风向东北
能见度10公里或以上
1500米以下无云,无积雨云

TAF: HEBL 300500Z 3006/3112 05010KT CAVOK

超过4000个机场的气象观测和天气预报(METAR&TAF报告)。

可查询的气象台以黄色和红色小点在地图上表示。

将鼠标移到小点上方,可查看气象台名称。

然后点击查看天气观测和预报。

如需切换地图:点击带黑十字的绿色按钮放大地图;点击带横线的绿色按钮缩小地图;或者点击绿色箭头查看邻近地区的地图。


METAR-TAF: